createdAt,value
2019-01-11T00:04:58.581Z,1.67
2019-01-11T00:08:22.835Z,2.33
2019-01-11T00:11:47.268Z,1.43
2019-01-11T00:15:11.269Z,4.57
2019-01-11T00:18:35.256Z,1.97
2019-01-11T00:21:59.221Z,2.47
2019-01-11T00:25:23.230Z,3.35
2019-01-11T00:28:47.203Z,2.08
2019-01-11T00:32:11.163Z,2.00
2019-01-11T00:35:35.397Z,3.53
2019-01-11T00:38:52.619Z,2.70
2019-01-11T00:42:16.906Z,1.50
2019-01-11T00:45:40.885Z,1.27
2019-01-11T00:49:05.500Z,1.70
2019-01-11T00:52:29.460Z,1.20
2019-01-11T00:55:53.464Z,1.50
2019-01-11T00:59:17.738Z,1.02
2019-01-11T01:02:41.713Z,1.20
2019-01-11T01:09:56.007Z,1.10
2019-01-11T01:13:20.007Z,0.50
2019-01-11T01:16:43.983Z,1.13
2019-01-11T01:20:28.743Z,2.03
2019-01-11T01:23:52.709Z,1.03
2019-01-11T01:27:16.805Z,2.30
2019-01-11T01:30:21.507Z,1.13
2019-01-11T01:33:45.725Z,1.17
2019-01-11T01:37:02.828Z,0.60
2019-01-11T01:40:26.840Z,0.80
2019-01-11T01:43:50.804Z,0.57
2019-01-11T01:47:14.778Z,0.83
2019-01-11T01:50:38.782Z,0.72
2019-01-11T01:54:02.771Z,1.15
2019-01-11T01:57:27.045Z,0.40
2019-01-11T02:00:51.015Z,0.90
2019-01-11T02:04:15.254Z,0.47
2019-01-11T02:07:39.240Z,2.50
2019-01-11T02:10:44.117Z,1.03
2019-01-11T02:14:08.143Z,1.73
2019-01-11T02:17:32.119Z,1.10
2019-01-11T02:20:56.093Z,3.77
2019-01-11T02:24:20.056Z,1.90
2019-01-11T02:31:33.551Z,0.80
2019-01-11T02:34:57.516Z,4.60
2019-01-11T02:38:14.667Z,1.13
2019-01-11T02:41:38.715Z,0.77
2019-01-11T02:45:02.693Z,0.60
2019-01-11T02:48:26.736Z,0.43
2019-01-11T02:51:50.884Z,3.17
2019-01-11T02:55:14.843Z,1.07
2019-01-11T02:58:38.813Z,0.97
2019-01-11T03:02:02.783Z,2.37
2019-01-11T03:05:28.280Z,1.33
2019-01-11T03:08:52.542Z,1.80
2019-01-11T03:12:16.516Z,2.80
2019-01-11T03:15:40.483Z,2.03
2019-01-11T03:19:04.592Z,1.43
2019-01-11T03:22:28.568Z,1.17
2019-01-11T03:25:52.884Z,1.53
2019-01-11T03:29:16.860Z,1.10
2019-01-11T03:32:40.833Z,1.43
2019-01-11T03:36:04.863Z,2.20
2019-01-11T03:39:29.187Z,1.47
2019-01-11T03:42:53.181Z,1.30
2019-01-11T03:46:17.141Z,1.60
2019-01-11T03:49:41.120Z,1.67
2019-01-11T03:53:05.419Z,1.43
2019-01-11T03:56:29.486Z,0.80
2019-01-11T03:59:53.462Z,2.03
2019-01-11T04:03:17.425Z,1.70
2019-01-11T04:10:26.037Z,1.27
2019-01-11T04:13:50.079Z,0.90
2019-01-11T04:17:14.312Z,0.97
2019-01-11T04:20:38.421Z,1.47
2019-01-11T04:24:02.878Z,3.00
2019-01-11T04:27:26.833Z,0.70
2019-01-11T04:30:31.518Z,0.87
2019-01-11T04:33:55.488Z,1.57
2019-01-11T04:37:12.317Z,2.23
2019-01-11T04:40:36.296Z,0.80
2019-01-11T04:44:00.555Z,1.10
2019-01-11T04:47:24.612Z,1.30
2019-01-11T04:50:48.637Z,3.03
2019-01-11T04:54:12.916Z,1.27
2019-01-11T04:57:37.262Z,1.50
2019-01-11T05:01:01.490Z,1.90
2019-01-11T05:04:25.494Z,1.05
2019-01-11T05:07:49.478Z,3.70
2019-01-11T05:11:14.738Z,1.33
2019-01-11T05:14:39.683Z,1.53
2019-01-11T05:18:03.958Z,1.60
2019-01-11T05:24:58.542Z,1.93
2019-01-11T05:28:22.516Z,1.80
2019-01-11T05:31:46.492Z,2.53
2019-01-11T05:35:10.838Z,2.87
2019-01-11T05:38:28.033Z,2.20
2019-01-11T05:41:52.341Z,1.70
2019-01-11T05:48:47.791Z,2.17
2019-01-11T05:52:11.758Z,3.00
2019-01-11T05:55:54.765Z,3.40
2019-01-11T05:59:01.450Z,2.67
2019-01-11T06:02:25.710Z,2.40
2019-01-11T06:05:49.690Z,2.93
2019-01-11T06:09:13.983Z,2.47
2019-01-11T06:12:37.958Z,1.43
2019-01-11T06:16:01.958Z,3.60
2019-01-11T06:19:25.954Z,2.40
2019-01-11T06:22:49.932Z,1.47
2019-01-11T06:26:14.201Z,1.67
2019-01-11T06:29:38.165Z,3.10
2019-01-11T06:33:02.139Z,2.43
2019-01-11T06:36:19.183Z,2.45
2019-01-11T06:39:43.198Z,3.27
2019-01-11T06:43:07.166Z,1.97
2019-01-11T06:46:31.143Z,4.77
2019-01-11T06:53:38.077Z,2.50
2019-01-11T06:57:02.094Z,1.73
2019-01-11T07:00:26.318Z,2.90
2019-01-11T07:03:50.290Z,2.47
2019-01-11T07:07:14.520Z,6.27
2019-01-11T07:10:38.770Z,1.73
2019-01-11T07:14:02.756Z,1.50
2019-01-11T07:17:27.039Z,1.97
2019-01-11T07:20:51.014Z,1.17
2019-01-11T07:24:14.984Z,2.10
2019-01-11T07:27:57.994Z,1.33
2019-01-11T07:31:21.957Z,2.30
2019-01-11T07:38:10.163Z,2.50
2019-01-11T07:41:34.250Z,2.83
2019-01-11T07:44:58.258Z,4.47
2019-01-11T07:48:22.305Z,6.73
2019-01-11T07:52:05.646Z,5.23
2019-01-11T07:55:29.611Z,4.50
2019-01-11T07:58:53.947Z,4.00
2019-01-11T08:01:58.886Z,4.43
2019-01-11T08:05:03.529Z,3.83
2019-01-11T08:08:08.302Z,2.80
2019-01-11T08:11:12.928Z,3.27
2019-01-11T08:14:37.160Z,3.47
2019-01-11T08:21:51.117Z,4.13
2019-01-11T08:28:46.475Z,2.27
2019-01-11T08:32:10.761Z,1.87
2019-01-11T08:35:34.769Z,4.93
2019-01-11T08:38:51.672Z,2.27
2019-01-11T08:42:15.642Z,2.57
2019-01-11T08:45:39.626Z,2.70
2019-01-11T08:49:22.974Z,1.82
2019-01-11T08:52:27.611Z,3.73
2019-01-11T08:59:40.209Z,2.07
2019-01-11T09:03:04.174Z,2.20
2019-01-11T09:06:29.391Z,2.73
2019-01-11T09:09:53.323Z,2.37
2019-01-11T09:17:00.467Z,3.20
2019-01-11T09:23:54.291Z,3.50
2019-01-11T09:27:18.257Z,3.27
2019-01-11T09:30:42.502Z,3.73
2019-01-11T09:34:06.793Z,3.73
2019-01-11T09:37:24.213Z,3.27
2019-01-11T09:41:07.467Z,2.80
2019-01-11T09:44:12.385Z,3.27
2019-01-11T09:47:36.351Z,4.63
2019-01-11T09:51:00.657Z,4.03
2019-01-11T09:54:24.947Z,4.17
2019-01-11T09:57:49.286Z,2.90
2019-01-11T10:01:32.591Z,2.83
2019-01-11T10:04:56.558Z,2.43
2019-01-11T10:08:20.510Z,3.43
2019-01-11T10:11:44.521Z,2.93
2019-01-11T10:15:29.509Z,3.43
2019-01-11T10:22:57.294Z,4.27
2019-01-11T10:26:21.303Z,3.58
2019-01-11T10:29:45.290Z,2.65
2019-01-11T10:32:49.919Z,3.10
2019-01-11T10:35:54.900Z,2.93
2019-01-11T10:39:11.786Z,2.50
2019-01-11T10:42:36.034Z,3.13
2019-01-11T10:49:34.762Z,5.47
2019-01-11T10:52:58.968Z,3.63
2019-01-11T10:59:52.333Z,3.20
2019-01-11T11:03:16.547Z,3.40
2019-01-11T11:06:40.519Z,4.17
2019-01-11T11:10:25.575Z,3.80
2019-01-11T11:13:49.865Z,3.57
2019-01-11T11:17:33.100Z,4.97
2019-01-11T11:24:39.992Z,4.13
2019-01-11T11:28:04.296Z,7.37
2019-01-11T11:31:28.260Z,5.63
2019-01-11T11:34:52.227Z,5.50
2019-01-11T11:38:09.532Z,4.20
2019-01-11T11:41:33.490Z,3.17
2019-01-11T11:44:57.463Z,4.20
2019-01-11T11:48:21.431Z,4.27
2019-01-11T11:51:26.049Z,3.27
2019-01-11T11:54:30.677Z,2.60
2019-01-11T11:57:35.634Z,3.13
2019-01-11T12:00:40.571Z,4.37
2019-01-11T12:03:45.510Z,4.43
2019-01-11T12:06:50.395Z,3.57
2019-01-11T12:09:55.418Z,4.03
2019-01-11T12:13:00.349Z,5.73
2019-01-11T12:16:04.964Z,3.00
2019-01-11T12:19:09.648Z,2.80
2019-01-11T12:22:14.525Z,1.77
2019-01-11T12:25:19.549Z,3.80
2019-01-11T12:28:24.179Z,2.93
2019-01-11T12:31:29.418Z,2.67
2019-01-11T12:34:34.356Z,3.10
2019-01-11T12:37:39.063Z,1.97
2019-01-11T12:40:43.707Z,3.37
2019-01-11T12:43:49.849Z,2.03
2019-01-11T12:46:54.682Z,4.17
2019-01-11T12:49:59.649Z,2.50
2019-01-11T12:53:04.453Z,2.60
2019-01-11T12:56:09.073Z,2.43
2019-01-11T12:59:13.735Z,6.12
2019-01-11T13:02:18.614Z,23.43
2019-01-11T13:05:23.924Z,24.33
2019-01-11T13:08:28.874Z,20.63
2019-01-11T13:11:33.568Z,3.87
2019-01-11T13:14:38.523Z,4.17
2019-01-11T13:17:43.687Z,3.27
2019-01-11T13:20:48.612Z,3.93
2019-01-11T13:23:53.252Z,2.30
2019-01-11T13:26:57.880Z,2.83
2019-01-11T13:30:02.522Z,4.13
2019-01-11T13:33:07.218Z,5.20
2019-01-11T13:36:13.892Z,4.53
2019-01-11T13:39:19.047Z,5.93
2019-01-11T13:42:23.705Z,7.93
2019-01-11T13:45:28.568Z,5.33
2019-01-11T13:48:35.077Z,7.57
2019-01-11T13:51:40.116Z,4.73
2019-01-11T13:54:45.047Z,3.80
2019-01-11T13:57:52.846Z,3.67
2019-01-11T14:00:57.539Z,3.43
2019-01-11T14:04:02.200Z,4.90
2019-01-11T14:07:09.119Z,4.80
2019-01-11T14:10:14.177Z,5.30
2019-01-11T14:13:19.363Z,3.67
2019-01-11T14:16:25.275Z,3.63
2019-01-11T14:19:29.964Z,5.20
2019-01-11T14:22:34.621Z,5.50
2019-01-11T14:25:39.357Z,5.20
2019-01-11T14:28:44.173Z,4.70
2019-01-11T14:31:49.108Z,5.57
2019-01-11T14:34:53.875Z,7.00
2019-01-11T14:37:58.774Z,5.30
2019-01-11T14:41:03.803Z,5.37
2019-01-11T14:44:08.474Z,6.00
2019-01-11T14:47:13.791Z,4.90
2019-01-11T14:50:20.383Z,6.28
2019-01-11T14:53:25.057Z,6.40
2019-01-11T14:56:30.348Z,8.00
2019-01-11T14:59:35.026Z,9.23
2019-01-11T15:02:39.992Z,7.67
2019-01-11T15:05:44.976Z,6.17
2019-01-11T15:08:49.601Z,10.77
2019-01-11T15:11:56.192Z,7.53
2019-01-11T15:15:01.183Z,7.30
2019-01-11T15:18:06.191Z,7.70
2019-01-11T15:21:10.832Z,6.50
2019-01-11T15:24:15.780Z,9.03
2019-01-11T15:27:20.461Z,6.93
2019-01-11T15:30:25.120Z,9.93
2019-01-11T15:33:50.567Z,7.27
2019-01-11T15:36:55.282Z,8.40
2019-01-11T15:40:00.229Z,9.30
2019-01-11T15:43:05.157Z,6.77
2019-01-11T15:46:15.051Z,7.57
2019-01-11T15:49:16.567Z,10.00
2019-01-11T15:52:21.219Z,7.07
2019-01-11T15:55:26.523Z,12.23
2019-01-11T15:58:31.373Z,8.27
2019-01-11T16:01:36.029Z,5.27
2019-01-11T16:04:40.685Z,8.63
2019-01-11T16:07:45.363Z,6.57
2019-01-11T16:11:16.020Z,5.70
2019-01-11T16:14:46.276Z,6.07
2019-01-11T16:17:53.326Z,5.23
2019-01-11T16:20:57.980Z,4.62
2019-01-11T16:24:02.689Z,5.43
2019-01-11T16:27:08.031Z,5.80
2019-01-11T16:30:15.913Z,6.03
2019-01-11T16:33:23.121Z,5.53
2019-01-11T16:36:28.002Z,6.17
2019-01-11T16:39:32.697Z,4.57
2019-01-11T16:42:38.794Z,5.47
2019-01-11T16:45:44.428Z,5.03
2019-01-11T16:48:49.122Z,6.12
2019-01-11T16:51:54.121Z,6.13
2019-01-11T16:54:59.160Z,4.50
2019-01-11T16:58:04.064Z,4.17
2019-01-11T17:01:09.294Z,3.57
2019-01-11T17:04:16.208Z,2.92
2019-01-11T17:07:30.836Z,2.13
2019-01-11T17:10:36.369Z,2.63
2019-01-11T17:13:42.271Z,3.70
2019-01-11T17:16:47.056Z,5.47
2019-01-11T17:19:51.748Z,3.50
2019-01-11T17:22:56.429Z,2.90
2019-01-11T17:26:01.086Z,3.90
2019-01-11T17:29:06.111Z,3.20
2019-01-11T17:32:11.028Z,5.57
2019-01-11T17:35:15.888Z,2.60
2019-01-11T17:38:20.765Z,2.83
2019-01-11T17:41:25.762Z,2.97
2019-01-11T17:44:33.316Z,2.43
2019-01-11T17:47:38.365Z,3.23
2019-01-11T17:50:43.371Z,4.37
2019-01-11T17:53:48.176Z,2.33
2019-01-11T18:07:27.961Z,2.33
2019-01-11T18:10:32.862Z,2.73
2019-01-11T18:13:56.848Z,3.03
2019-01-11T18:17:13.955Z,3.73
2019-01-11T18:20:38.060Z,1.70
2019-01-11T18:24:02.018Z,3.67
2019-01-11T18:27:26.062Z,2.90
2019-01-11T18:30:50.047Z,2.17
2019-01-11T18:34:14.043Z,2.90
2019-01-11T18:37:30.911Z,1.73
2019-01-11T18:41:13.936Z,2.03
2019-01-11T18:44:56.965Z,1.72
2019-01-11T18:48:20.967Z,1.70
2019-01-11T18:51:45.200Z,1.40
2019-01-11T18:58:59.132Z,1.23
2019-01-11T19:02:04.008Z,2.00
2019-01-11T19:05:11.749Z,2.25
2019-01-11T19:08:17.158Z,3.08
2019-01-11T19:11:21.794Z,1.77
2019-01-11T19:14:45.772Z,4.87
2019-01-11T19:21:39.490Z,1.40
2019-01-11T19:29:07.385Z,0.62
2019-01-11T19:32:31.360Z,0.50
2019-01-11T19:36:14.642Z,2.57
2019-01-11T19:39:31.857Z,1.63
2019-01-11T19:43:14.876Z,1.10
2019-01-11T19:46:38.855Z,1.97
2019-01-11T19:50:21.933Z,1.53
2019-01-11T19:53:45.955Z,0.93
2019-01-11T19:57:10.231Z,1.17
2019-01-11T20:00:34.254Z,2.23
2019-01-11T20:03:58.369Z,4.07
2019-01-11T20:07:41.495Z,2.23
2019-01-11T20:14:48.973Z,1.23
2019-01-11T20:22:02.764Z,1.50
2019-01-11T20:25:27.018Z,2.60
2019-01-11T20:28:51.003Z,2.27
2019-01-11T20:32:14.996Z,1.50
2019-01-11T20:35:38.985Z,1.67
2019-01-11T20:38:56.109Z,1.20
2019-01-11T20:42:39.357Z,1.33
2019-01-11T20:46:22.435Z,0.87
2019-01-11T20:49:46.418Z,2.70
2019-01-11T20:53:10.767Z,2.63
2019-01-11T20:56:54.002Z,1.30
2019-01-11T21:00:37.448Z,1.60
2019-01-11T21:04:01.546Z,3.17
2019-01-11T21:07:25.521Z,2.53
2019-01-11T21:14:41.668Z,1.40
2019-01-11T21:18:25.181Z,2.17
2019-01-11T21:25:32.552Z,3.17
2019-01-11T21:28:56.784Z,2.93
2019-01-11T21:35:44.821Z,0.97
2019-01-11T21:38:49.529Z,1.62
2019-01-11T21:42:19.063Z,1.40
2019-01-11T21:45:39.560Z,0.90
2019-01-11T21:49:03.544Z,0.70
2019-01-11T21:52:27.875Z,2.17
2019-01-11T21:55:51.980Z,4.93
2019-01-11T21:59:15.942Z,2.33
2019-01-11T22:02:58.937Z,1.93
2019-01-11T22:06:22.927Z,1.17
2019-01-11T22:09:27.811Z,1.57
2019-01-11T22:12:51.788Z,2.10
2019-01-11T22:16:16.010Z,0.97
2019-01-11T22:19:39.985Z,2.20
2019-01-11T22:23:04.234Z,1.60
2019-01-11T22:26:28.475Z,1.12
2019-01-11T22:29:52.519Z,2.17
2019-01-11T22:33:16.488Z,1.70
2019-01-11T22:36:59.727Z,1.17
2019-01-11T22:40:07.503Z,1.17
2019-01-11T22:43:31.517Z,1.40
2019-01-11T22:46:55.753Z,0.50
2019-01-11T22:53:51.025Z,1.70
2019-01-11T23:04:41.333Z,1.37
2019-01-11T23:08:05.742Z,1.53
2019-01-11T23:15:40.241Z,1.83
2019-01-11T23:19:04.591Z,1.40
2019-01-11T23:22:28.567Z,1.73
2019-01-11T23:25:52.838Z,1.23
2019-01-11T23:29:16.940Z,1.10
2019-01-11T23:36:10.144Z,0.93
2019-01-11T23:39:27.182Z,1.40
2019-01-11T23:42:51.226Z,1.50
2019-01-11T23:46:15.443Z,1.47
2019-01-11T23:49:39.658Z,2.07
2019-01-11T23:53:03.630Z,1.77
2019-01-11T23:56:27.725Z,2.90
2019-01-11T23:59:32.355Z,1.00
